Time;durP1;ratioP1;P1;durP2;ratioP2;P2;SDS_P1;SDS_P2;PMS_P1;PMS_P2;Temp;Humidity;BMP_temperature;BMP_pressure;BME280_temperature;BME280_humidity;BME280_pressure;Samples;Min_cycle;Max_cycle;Signal;HPM_P1;HPM_P2
2022/01/12 00:02:49;;;;;;;;;;;;;;;-4.97;80.89;101930.41;5595718;31;34564;-83
2022/01/12 00:05:54;;;;;;;;;;;;;;;-4.74;79.31;101937.25;5596537;31;34175;-83
2022/01/12 00:08:59;;;;;;;;;;;;;;;-4.83;79.31;101938.13;5595539;31;33753;-83
2022/01/12 00:12:02;;;;;;;;;;;;;;;-4.79;79.38;101934.69;5597346;31;34899;-83
2022/01/12 00:15:05;;;;;;;;;;;;;;;-4.99;80.68;101943.28;5599023;31;34629;-83
2022/01/12 00:18:17;;;;;;;;;;;;;;;-4.98;80.59;101939.00;5597650;31;34494;-83
2022/01/12 00:21:19;;;;;;;;;;;;;;;-5.10;80.82;101936.44;5598954;31;35363;-83
2022/01/12 00:24:28;;;;;;;;;;;;;;;-5.17;81.33;101938.16;5599829;31;35160;-83
2022/01/12 00:34:14;;;;;;;;;;;;;;;-5.38;81.88;101950.19;5599414;31;34476;-83
2022/01/12 00:37:20;;;;;;;;;;;;;;;-5.45;82.44;101945.84;5598889;31;34710;-83
2022/01/12 00:40:22;;;;;;;;;;;;;;;-5.29;82.23;101945.03;5597790;31;34093;-83
2022/01/12 00:43:27;;;;;;;;;;;;;;;-4.99;80.85;101953.59;5598207;31;34416;-83
2022/01/12 00:46:30;;;;;;;;;;;;;;;-5.14;81.64;101956.22;5597619;31;34122;-83
2022/01/12 00:49:34;;;;;;;;;;;;;;;-5.35;82.72;101965.66;5598270;31;34750;-83
2022/01/12 00:52:39;;;;;;;;;;;;;;;-5.41;83.43;101965.66;5600393;31;35060;-83
2022/01/12 00:55:43;;;;;;;;;;;;;;;-5.55;84.20;101967.34;5586829;31;34053;-83
2022/01/12 00:58:45;;;;;;;;;;;;;;;-5.61;84.62;101969.06;5600054;31;34270;-83
2022/01/12 01:01:48;;;;;;;;;;;;;;;-5.68;85.37;101972.47;5598222;31;33008;-83
2022/01/12 01:04:51;;;;;;;;;;;;;;;-5.76;85.21;101979.31;5598020;31;34419;-83
2022/01/12 01:07:53;;;;;;;;;;;;;;;-5.76;86.75;101972.47;5598024;31;34945;-83
2022/01/12 01:10:58;;;;;;;;;;;;;;;-5.82;86.68;101971.59;5601034;31;34347;-83
2022/01/12 01:14:10;;;;;;;;;;;;;;;-5.90;85.62;101967.25;5599445;31;34107;-83
2022/01/12 01:27:22;;;;;;;;;;;;;;;-6.22;87.49;101962.88;5597046;31;34286;-84
2022/01/12 01:30:25;;;;;;;;;;;;;;;-6.29;87.50;101968.84;5597969;31;34414;-83
2022/01/12 01:33:32;;;;;;;;;;;;;;;-6.24;89.48;101972.31;5597568;31;34187;-83
2022/01/12 01:36:36;;;;;;;;;;;;;;;-6.36;89.73;101977.41;5604181;31;34532;-83
2022/01/12 01:39:43;;;;;;;;;;;;;;;-6.41;90.02;101973.94;5599985;31;35384;-83
2022/01/12 01:56:03;;;;;;;;;;;;;;;-6.56;91.43;101988.44;5597389;31;34456;-82
2022/01/12 01:59:07;;;;;;;;;;;;;;;-6.46;90.98;101983.34;5598255;31;34657;-81
2022/01/12 02:02:13;;;;;;;;;;;;;;;-6.32;89.50;101984.28;5598833;31;34201;-81
2022/01/12 02:05:21;;;;;;;;;;;;;;;-6.43;90.45;101983.38;5598083;31;34112;-81
2022/01/12 02:08:23;;;;;;;;;;;;;;;-6.50;90.29;101990.19;5598294;31;34652;-81
2022/01/12 02:11:28;;;;;;;;;;;;;;;-6.57;91.15;101991.88;5597844;31;34874;-81
2022/01/12 02:14:30;;;;;;;;;;;;;;;-6.55;90.88;101997.88;5600742;31;34925;-84
2022/01/12 02:17:39;;;;;;;;;;;;;;;-6.53;91.78;102006.50;5600463;31;35397;-84
2022/01/12 02:41:10;;;;;;;;;;;;;;;-6.75;95.64;101994.31;5597084;31;33951;-84
2022/01/12 02:53:45;;;;;;;;;;;;;;;-6.88;98.45;101998.53;5597273;31;34906;-84
2022/01/12 02:56:48;;;;;;;;;;;;;;;-6.91;99.53;101993.34;5597078;31;34096;-84
2022/01/12 03:00:09;;;;;;;;;;;;;;;-7.00;99.92;101997.59;5596782;31;35483;-84
2022/01/12 03:03:21;;;;;;;;;;;;;;;-7.03;99.99;101999.25;5596575;31;34363;-84
2022/01/12 03:06:30;;;;;;;;;;;;;;;-6.86;99.51;101995.09;5596562;31;35015;-84
2022/01/12 03:09:32;;;;;;;;;;;;;;;-6.88;99.82;101995.97;5596594;31;34547;-84
2022/01/12 03:12:36;;;;;;;;;;;;;;;-6.79;98.88;101998.59;5596336;31;34681;-84
2022/01/12 03:15:40;;;;;;;;;;;;;;;-6.83;97.90;102000.28;5596544;31;34499;-84
2022/01/12 03:18:49;;;;;;;;;;;;;;;-6.86;97.47;102001.94;5596252;31;34342;-84
2022/01/12 03:21:52;;;;;;;;;;;;;;;-7.09;97.96;102006.91;5596529;31;35129;-84
2022/01/12 03:24:55;;;;;;;;;;;;;;;-7.22;99.02;102009.37;5597585;31;34610;-84
2022/01/12 03:28:01;;;;;;;;;;;;;;;-7.34;99.65;102011.84;5596505;31;34420;-84
2022/01/12 03:35:08;;;;;;;;;;;;;;;-7.28;98.94;102019.63;5596016;31;34710;-85
2022/01/12 03:37:54;;;;;;;;;;;;;;;-7.21;99.08;102018.81;5587815;31;34285;-84
2022/01/12 03:40:59;;;;;;;;;;;;;;;-6.83;97.83;102018.31;5597024;31;34506;-84
2022/01/12 03:44:07;;;;;;;;;;;;;;;-7.02;98.95;102021.56;5596929;31;34455;-84
2022/01/12 03:47:09;;;;;;;;;;;;;;;-7.16;100.00;102019.75;5598532;31;34275;-84
2022/01/12 03:50:12;;;;;;;;;;;;;;;-7.17;99.17;102015.44;5599101;31;34473;-84
2022/01/12 03:53:16;;;;;;;;;;;;;;;-7.34;100.00;102006.69;5599620;31;34668;-84
2022/01/12 03:56:19;;;;;;;;;;;;;;;-7.41;100.00;102017.78;5599378;31;34544;-84
2022/01/12 03:59:22;;;;;;;;;;;;;;;-7.47;100.00;102018.56;5599277;31;34419;-84
2022/01/12 04:02:29;;;;;;;;;;;;;;;-7.45;100.00;102022.87;5602838;31;34822;-84
2022/01/12 04:08:48;;;;;;;;;;;;;;;-7.16;99.13;102017.16;5598111;31;33233;-85
2022/01/12 04:11:51;;;;;;;;;;;;;;;-7.29;99.45;102012.75;5597556;31;34667;-84
2022/01/12 04:14:54;;;;;;;;;;;;;;;-7.32;100.00;102016.13;5598227;31;34377;-83
2022/01/12 04:17:57;;;;;;;;;;;;;;;-7.39;100.00;102006.66;5599074;31;34706;-83
2022/01/12 04:21:03;;;;;;;;;;;;;;;-7.52;100.00;102010.81;5600569;31;35152;-85
2022/01/12 04:24:06;;;;;;;;;;;;;;;-7.55;100.00;102010.78;5598295;31;35478;-84
2022/01/12 04:27:09;;;;;;;;;;;;;;;-7.55;100.00;102015.06;5597227;31;34306;-85
2022/01/12 04:30:14;;;;;;;;;;;;;;;-7.68;100.00;102019.19;5600423;31;34219;-85
2022/01/12 04:33:18;;;;;;;;;;;;;;;-7.74;100.00;102014.84;5597101;31;34614;-84
2022/01/12 04:36:23;;;;;;;;;;;;;;;-7.84;100.00;102019.03;5598309;31;34560;-85
2022/01/12 04:39:27;;;;;;;;;;;;;;;-7.86;100.00;102020.72;5584345;31;34605;-84
2022/01/12 04:42:30;;;;;;;;;;;;;;;-7.83;100.00;102023.31;5599208;31;35121;-85
2022/01/12 04:51:52;;;;;;;;;;;;;;;-7.73;100.00;102031.13;5598481;31;34401;-85
2022/01/12 04:54:55;;;;;;;;;;;;;;;-7.64;100.00;102026.09;5597318;31;33896;-84
2022/01/12 04:57:58;;;;;;;;;;;;;;;-7.68;100.00;102029.47;5599114;31;34412;-84
2022/01/12 05:01:09;;;;;;;;;;;;;;;-7.49;100.00;102035.69;5598629;31;34092;-84
2022/01/12 05:07:46;;;;;;;;;;;;;;;-7.31;100.00;102043.59;5597491;31;33853;-85
2022/01/12 05:14:10;;;;;;;;;;;;;;;-7.49;100.00;102044.28;5600743;31;34720;-83
2022/01/12 05:17:14;;;;;;;;;;;;;;;-7.55;100.00;102046.75;5598642;31;34833;-83
2022/01/12 05:20:17;;;;;;;;;;;;;;;-7.36;100.00;102046.94;5596997;31;35054;-84
2022/01/12 05:23:19;;;;;;;;;;;;;;;-7.31;100.00;102050.44;5597239;31;34282;-84
2022/01/12 05:26:26;;;;;;;;;;;;;;;-7.37;100.00;102055.50;5597305;31;34796;-84
2022/01/12 05:29:30;;;;;;;;;;;;;;;-7.42;100.00;102046.91;5598013;31;34558;-84
2022/01/12 05:32:33;;;;;;;;;;;;;;;-7.56;100.00;102039.87;5597613;31;34615;-84
2022/01/12 05:35:36;;;;;;;;;;;;;;;-7.50;100.00;102046.81;5597520;31;35418;-84
2022/01/12 05:38:39;;;;;;;;;;;;;;;-7.56;100.00;102052.75;5598597;31;34433;-83
2022/01/12 05:41:42;;;;;;;;;;;;;;;-7.45;100.00;102048.59;5598024;31;34701;-83
2022/01/12 05:44:45;;;;;;;;;;;;;;;-7.54;100.00;102056.19;5597003;31;34800;-82
2022/01/12 05:50:54;;;;;;;;;;;;;;;-7.80;100.00;102051.59;5596777;31;34742;-84
2022/01/12 05:53:57;;;;;;;;;;;;;;;-7.85;100.00;102067.81;5597438;31;33780;-84
2022/01/12 05:57:01;;;;;;;;;;;;;;;-7.96;100.00;102067.69;5598996;31;36816;-83
2022/01/12 06:00:05;;;;;;;;;;;;;;;-7.94;100.00;102071.16;5596407;31;34791;-83
2022/01/12 06:03:15;;;;;;;;;;;;;;;-7.94;100.00;102073.72;5596314;31;34615;-83
2022/01/12 06:06:18;;;;;;;;;;;;;;;-7.99;100.00;102075.34;5597225;31;34685;-84
2022/01/12 06:09:22;;;;;;;;;;;;;;;-8.08;100.00;102076.94;5594519;31;34507;-83
2022/01/12 06:12:26;;;;;;;;;;;;;;;-8.01;100.00;102087.28;5598732;31;34979;-84
2022/01/12 06:15:29;;;;;;;;;;;;;;;-8.03;100.00;102094.13;5596641;31;34582;-85
2022/01/12 06:18:41;;;;;;;;;;;;;;;-8.03;100.00;102100.13;5598083;31;34233;-84
2022/01/12 06:21:44;;;;;;;;;;;;;;;-7.98;100.00;102105.34;5597091;31;34524;-83
2022/01/12 06:24:48;;;;;;;;;;;;;;;-7.74;100.00;102109.09;5597382;31;34236;-84
2022/01/12 06:28:41;;;;;;;;;;;;;;;-7.50;100.00;102111.97;5602200;31;34703;-84
2022/01/12 06:31:18;;;;;;;;;;;;;;;-7.27;100.00;102118.22;5588375;31;33990;-85
2022/01/12 06:34:23;;;;;;;;;;;;;;;-7.36;100.00;102113.81;5598031;31;33864;-85
2022/01/12 06:37:26;;;;;;;;;;;;;;;-7.45;100.00;102115.44;5597672;31;34927;-84
2022/01/12 06:40:28;;;;;;;;;;;;;;;-7.31;100.00;102113.03;5596638;31;34810;-85
2022/01/12 06:43:31;;;;;;;;;;;;;;;-7.34;100.00;102115.59;5596388;31;34629;-84
2022/01/12 06:46:36;;;;;;;;;;;;;;;-7.37;100.00;102117.22;5595526;31;34844;-83
2022/01/12 06:49:39;;;;;;;;;;;;;;;-7.35;100.00;102115.53;5596988;31;34370;-83
2022/01/12 06:52:43;;;;;;;;;;;;;;;-7.26;100.00;102118.22;5598272;31;34631;-84
2022/01/12 06:55:46;;;;;;;;;;;;;;;-7.20;100.00;102120.88;5597285;31;34529;-84
2022/01/12 06:58:49;;;;;;;;;;;;;;;-7.23;100.00;102125.13;5597300;31;34698;-84
2022/01/12 07:01:52;;;;;;;;;;;;;;;-7.21;100.00;102129.44;5596089;31;34666;-83
2022/01/12 07:04:59;;;;;;;;;;;;;;;-7.18;100.00;102128.59;5596002;31;34826;-83
2022/01/12 07:08:02;;;;;;;;;;;;;;;-7.27;100.00;102126.81;5597402;31;34831;-83
2022/01/12 07:11:05;;;;;;;;;;;;;;;-7.38;100.00;102126.66;5598828;31;34803;-84
2022/01/12 07:14:29;;;;;;;;;;;;;;;-7.40;100.00;102143.78;5600816;31;35077;-84
2022/01/12 07:17:31;;;;;;;;;;;;;;;-7.38;100.00;102133.53;5597061;31;34897;-83
2022/01/12 07:20:34;;;;;;;;;;;;;;;-7.37;100.00;102140.38;5594542;31;34136;-83
2022/01/12 07:23:40;;;;;;;;;;;;;;;-7.33;100.00;102149.88;5596093;31;35152;-85
2022/01/12 07:26:42;;;;;;;;;;;;;;;-7.28;100.00;102153.38;5595577;31;35108;-84
2022/01/12 07:29:45;;;;;;;;;;;;;;;-7.16;100.00;102150.94;5596547;31;34859;-83
2022/01/12 07:32:48;;;;;;;;;;;;;;;-7.13;100.00;102157.81;5595897;31;34372;-85
2022/01/12 07:35:51;;;;;;;;;;;;;;;-7.01;100.00;102163.13;5595374;31;34594;-84
2022/01/12 07:38:59;;;;;;;;;;;;;;;-6.70;100.00;102172.87;5597148;31;34464;-84
2022/01/12 07:42:03;;;;;;;;;;;;;;;-6.67;100.00;102173.75;5595646;31;34045;-84
2022/01/12 07:45:08;;;;;;;;;;;;;;;-6.57;100.00;102168.69;5595159;31;35141;-83
2022/01/12 07:48:14;;;;;;;;;;;;;;;-6.68;100.00;102184.03;5595136;31;34041;-85
2022/01/12 07:51:19;;;;;;;;;;;;;;;-6.67;100.00;102178.03;5595103;31;34805;-84
2022/01/12 07:54:32;;;;;;;;;;;;;;;-6.56;100.00;102173.84;5595516;31;35353;-84
2022/01/12 07:57:35;;;;;;;;;;;;;;;-6.44;100.00;102187.69;5594736;31;34570;-84
2022/01/12 08:00:37;;;;;;;;;;;;;;;-6.42;100.00;102186.00;5594966;31;34958;-84
2022/01/12 08:03:41;;;;;;;;;;;;;;;-6.12;97.91;102189.66;5581258;31;34784;-85
2022/01/12 08:06:48;;;;;;;;;;;;;;;-6.00;96.92;102186.34;5595514;31;34642;-86
2022/01/12 08:09:50;;;;;;;;;;;;;;;-5.97;96.93;102187.19;5595326;31;35645;-85
2022/01/12 08:12:53;;;;;;;;;;;;;;;-5.96;96.75;102198.34;5595618;31;34919;-84
2022/01/12 08:15:56;;;;;;;;;;;;;;;-5.96;97.53;102193.19;5594953;31;35137;-84
2022/01/12 08:18:58;;;;;;;;;;;;;;;-5.97;97.38;102192.34;5594737;31;34451;-85
2022/01/12 08:22:10;;;;;;;;;;;;;;;-5.91;97.90;102197.53;5594739;31;34849;-84
2022/01/12 08:25:15;;;;;;;;;;;;;;;-5.75;97.42;102195.06;5595160;31;34828;-85
2022/01/12 08:28:23;;;;;;;;;;;;;;;-5.74;97.08;102195.06;5594052;31;34297;-84
2022/01/12 08:31:25;;;;;;;;;;;;;;;-5.56;96.04;102203.78;5594669;31;33970;-85
2022/01/12 08:34:28;;;;;;;;;;;;;;;-5.53;96.78;102218.41;5597857;31;34349;-85
2022/01/12 08:37:31;;;;;;;;;;;;;;;-5.44;96.37;102224.47;5597647;31;34419;-84
2022/01/12 08:40:38;;;;;;;;;;;;;;;-5.34;94.26;102230.53;5597146;31;34386;-85
2022/01/12 08:43:40;;;;;;;;;;;;;;;-5.23;94.14;102229.72;5597185;31;35056;-84
2022/01/12 08:46:43;;;;;;;;;;;;;;;-5.11;92.62;102232.38;5597639;31;35122;-83
2022/01/12 08:49:45;;;;;;;;;;;;;;;-4.90;90.85;102230.75;5599167;31;34510;-82
2022/01/12 08:52:53;;;;;;;;;;;;;;;-4.81;88.95;102220.44;5597420;31;34151;-82
2022/01/12 08:55:58;;;;;;;;;;;;;;;-4.90;89.89;102225.59;5596375;31;36675;-82
2022/01/12 08:59:00;;;;;;;;;;;;;;;-4.79;89.75;102218.75;5596817;31;35423;-83
2022/01/12 09:02:03;;;;;;;;;;;;;;;-4.74;89.10;102224.75;5597583;31;34379;-82
2022/01/12 09:05:07;;;;;;;;;;;;;;;-4.68;88.98;102224.81;5598476;31;34373;-83
2022/01/12 09:08:10;;;;;;;;;;;;;;;-4.68;90.13;102211.00;5598316;31;34708;-83
2022/01/12 09:11:18;;;;;;;;;;;;;;;-4.66;89.78;102222.22;5586753;31;35133;-83
2022/01/12 09:14:22;;;;;;;;;;;;;;;-4.35;87.84;102224.84;5598059;31;34329;-85
2022/01/12 09:17:25;;;;;;;;;;;;;;;-4.41;87.91;102224.84;5597870;31;34024;-85
2022/01/12 09:20:28;;;;;;;;;;;;;;;-4.22;87.00;102210.19;5596938;31;34042;-82
2022/01/12 09:23:32;;;;;;;;;;;;;;;-4.22;87.43;102220.53;5597160;31;35072;-82
2022/01/12 09:26:34;;;;;;;;;;;;;;;-4.21;88.20;102212.78;5602751;31;34436;-82
2022/01/12 09:29:43;;;;;;;;;;;;;;;-4.12;87.33;102217.13;5616880;31;34889;-83
2022/01/12 09:32:46;;;;;;;;;;;;;;;-3.85;85.52;102222.28;5617110;31;34295;-84
2022/01/12 09:35:54;;;;;;;;;;;;;;;-3.86;85.58;102210.19;5617358;31;33956;-83
2022/01/12 09:38:57;;;;;;;;;;;;;;;-3.86;85.89;102207.62;5596620;31;34516;-84
2022/01/12 09:42:00;;;;;;;;;;;;;;;-3.75;84.86;102201.56;5599018;31;34684;-84
2022/01/12 09:45:06;;;;;;;;;;;;;;;-3.49;83.01;102212.72;5596673;31;34401;-83
2022/01/12 09:48:11;;;;;;;;;;;;;;;-3.48;83.84;102220.47;5597003;31;34716;-82
2022/01/12 09:51:13;;;;;;;;;;;;;;;-3.43;82.03;102217.88;5595999;31;34275;-84
2022/01/12 09:54:18;;;;;;;;;;;;;;;-3.34;82.25;102217.00;5597085;31;34580;-82
2022/01/12 09:57:23;;;;;;;;;;;;;;;-3.24;82.36;102226.47;5597156;31;34210;-82
2022/01/12 10:00:26;;;;;;;;;;;;;;;-3.23;81.24;102222.12;5598618;31;34501;-83
2022/01/12 10:03:29;;;;;;;;;;;;;;;-3.22;81.44;102222.12;5598486;31;34671;-83
2022/01/12 10:06:34;;;;;;;;;;;;;;;-3.03;76.26;102232.41;5598465;31;35062;-82
2022/01/12 10:09:38;;;;;;;;;;;;;;;-2.96;75.28;102228.91;5595494;31;35167;-82
2022/01/12 10:12:51;;;;;;;;;;;;;;;-2.99;76.35;102224.62;5605065;31;34889;-83
2022/01/12 10:15:57;;;;;;;;;;;;;;;-2.92;76.33;102220.28;5599052;31;34602;-83
2022/01/12 10:19:00;;;;;;;;;;;;;;;-2.81;75.42;102228.84;5602408;31;34356;-82
2022/01/12 10:22:05;;;;;;;;;;;;;;;-2.70;74.10;102230.53;5610391;31;34189;-83
2022/01/12 10:25:17;;;;;;;;;;;;;;;-2.83;72.84;102229.75;5615857;31;34320;-83
2022/01/12 10:28:23;;;;;;;;;;;;;;;-2.64;72.08;102225.28;5611050;31;34238;-82
2022/01/12 10:31:28;;;;;;;;;;;;;;;-2.64;72.23;102221.00;5617379;31;34500;-82
2022/01/12 10:34:39;;;;;;;;;;;;;;;-2.58;70.26;102227.88;5617100;31;34300;-82
2022/01/12 10:37:41;;;;;;;;;;;;;;;-2.43;70.23;102220.88;5604797;31;34538;-83
2022/01/12 10:40:44;;;;;;;;;;;;;;;-2.41;70.40;102216.50;5610419;31;34326;-82
2022/01/12 10:43:47;;;;;;;;;;;;;;;-2.42;70.75;102214.81;5603955;31;35304;-83
2022/01/12 10:46:50;;;;;;;;;;;;;;;-2.23;68.12;102211.22;5606342;31;34913;-83
2022/01/12 10:49:52;;;;;;;;;;;;;;;-2.38;67.12;102216.50;5615179;31;34568;-83
2022/01/12 10:53:02;;;;;;;;;;;;;;;-2.34;67.83;102206.09;5607241;31;34875;-83
2022/01/12 10:56:07;;;;;;;;;;;;;;;-2.18;67.29;102212.03;5595886;31;34685;-82
2022/01/12 10:59:20;;;;;;;;;;;;;;;-1.99;67.27;102214.47;5597901;31;34048;-82
2022/01/12 11:02:23;;;;;;;;;;;;;;;-1.82;68.04;102208.25;5595673;31;34312;-82
2022/01/12 11:05:27;;;;;;;;;;;;;;;-1.78;67.11;102202.19;5596250;31;34805;-82
2022/01/12 11:08:29;;;;;;;;;;;;;;;-1.86;67.90;102210.88;5597852;31;34610;-82
2022/01/12 11:11:38;;;;;;;;;;;;;;;-1.80;67.63;102203.94;5595817;31;34263;-81
2022/01/12 11:14:40;;;;;;;;;;;;;;;-1.75;67.46;102209.94;5597632;31;34670;-83
2022/01/12 11:17:44;;;;;;;;;;;;;;;-1.70;67.57;102208.16;5595703;31;34972;-82
2022/01/12 11:20:50;;;;;;;;;;;;;;;-1.59;67.76;102208.91;5596336;31;34779;-83
2022/01/12 11:24:02;;;;;;;;;;;;;;;-1.56;67.73;102208.88;5595626;31;34373;-82
2022/01/12 11:27:06;;;;;;;;;;;;;;;-1.45;65.73;102208.75;5596577;31;34182;-82
2022/01/12 11:30:20;;;;;;;;;;;;;;;-1.48;65.35;102201.00;5596876;31;34347;-83
2022/01/12 11:33:36;;;;;;;;;;;;;;;-1.53;63.91;102207.13;5595788;31;33799;-83
2022/01/12 11:36:42;;;;;;;;;;;;;;;-1.56;64.75;102203.69;5596182;31;34855;-83
2022/01/12 11:39:47;;;;;;;;;;;;;;;-1.52;63.94;102203.66;5595410;31;34192;-82
2022/01/12 11:42:49;;;;;;;;;;;;;;;-1.39;63.73;102202.63;5597404;31;35042;-83
2022/01/12 11:46:03;;;;;;;;;;;;;;;-1.37;61.61;102203.47;5596918;31;34750;-83
2022/01/12 11:49:06;;;;;;;;;;;;;;;-1.39;61.89;102200.03;5595413;31;34120;-82
2022/01/12 11:52:13;;;;;;;;;;;;;;;-1.38;62.40;102191.38;5596375;31;34405;-83
2022/01/12 11:55:18;;;;;;;;;;;;;;;-1.21;62.22;102182.53;5595891;31;34016;-82
2022/01/12 11:58:22;;;;;;;;;;;;;;;-1.22;62.07;102186.00;5596697;31;34550;-83
2022/01/12 12:01:36;;;;;;;;;;;;;;;-1.23;62.55;102179.94;5595416;31;34523;-83
2022/01/12 12:04:51;;;;;;;;;;;;;;;-1.36;64.15;102186.16;5595811;31;34526;-83
2022/01/12 12:07:55;;;;;;;;;;;;;;;-1.30;63.52;102184.38;5596858;31;34364;-83
2022/01/12 12:11:09;;;;;;;;;;;;;;;-1.22;63.38;102175.59;5599833;31;34442;-84
2022/01/12 12:14:12;;;;;;;;;;;;;;;-1.20;63.76;102171.25;5601319;31;34766;-83
2022/01/12 12:17:15;;;;;;;;;;;;;;;-1.16;64.35;102176.41;5601700;31;35001;-82
2022/01/12 12:20:19;;;;;;;;;;;;;;;-1.17;64.47;102171.19;5598473;31;34445;-84
2022/01/12 12:23:30;;;;;;;;;;;;;;;-1.20;64.04;102169.50;5600657;31;34438;-83
2022/01/12 12:26:46;;;;;;;;;;;;;;;-1.17;65.19;102171.19;5601465;31;35057;-83
2022/01/12 12:29:51;;;;;;;;;;;;;;;-0.94;62.94;102176.09;5598953;31;34567;-83
2022/01/12 12:32:58;;;;;;;;;;;;;;;-1.10;63.66;102175.47;5598355;31;34113;-83
2022/01/12 12:36:04;;;;;;;;;;;;;;;-1.19;63.71;102192.00;5597510;31;34822;-83
2022/01/12 12:39:07;;;;;;;;;;;;;;;-1.07;63.76;102175.41;5596946;31;34531;-83
2022/01/12 12:42:17;;;;;;;;;;;;;;;-1.05;63.92;102178.84;5596866;31;34206;-82
2022/01/12 12:45:20;;;;;;;;;;;;;;;-0.96;63.53;102189.09;5596540;31;34519;-82
2022/01/12 12:48:28;;;;;;;;;;;;;;;-0.91;65.42;102175.19;5596789;31;35653;-82
2022/01/12 12:51:30;;;;;;;;;;;;;;;-1.00;65.01;102171.84;5597175;31;34747;-84
2022/01/12 12:54:33;;;;;;;;;;;;;;;-1.15;65.48;102165.13;5597621;31;34256;-83
2022/01/12 12:57:50;;;;;;;;;;;;;;;-1.16;66.12;102163.41;5596710;31;34493;-83
2022/01/12 13:01:03;;;;;;;;;;;;;;;-1.05;66.70;102163.25;5596413;31;34687;-83
2022/01/12 13:04:07;;;;;;;;;;;;;;;-1.02;66.17;102168.41;5598083;31;34743;-82
2022/01/12 13:07:11;;;;;;;;;;;;;;;-1.14;65.51;102168.56;5598359;31;34770;-84
2022/01/12 13:10:15;;;;;;;;;;;;;;;-0.98;66.84;102159.72;5597018;31;34590;-82
2022/01/12 13:13:18;;;;;;;;;;;;;;;-1.10;66.91;102175.47;5597943;31;33994;-82
2022/01/12 13:16:24;;;;;;;;;;;;;;;-1.11;68.21;102168.53;5598242;31;34273;-84
2022/01/12 13:21:06;;;;;;;;;;;;;;;-1.02;67.54;102162.37;5597811;31;35224;-83
2022/01/12 13:22:51;;;;;;;;;;;;;;;-1.11;66.76;102152.94;5598344;31;34872;-82
2022/01/12 13:25:55;;;;;;;;;;;;;;;-1.07;66.38;102165.03;5599147;31;34413;-82
2022/01/12 13:29:00;;;;;;;;;;;;;;;-0.99;66.31;102173.56;5618739;31;34484;-82
2022/01/12 13:32:10;;;;;;;;;;;;;;;-0.90;66.50;102169.97;5621498;31;34126;-82
2022/01/12 13:35:13;;;;;;;;;;;;;;;-0.94;66.00;102169.16;5618992;31;34609;-82
2022/01/12 13:38:29;;;;;;;;;;;;;;;-1.25;67.65;102171.31;5616548;31;34167;-82
2022/01/12 13:41:34;;;;;;;;;;;;;;;-1.37;68.63;102174.91;5617647;31;34550;-82
2022/01/12 13:44:39;;;;;;;;;;;;;;;-1.19;67.51;102175.59;5617402;31;35275;-82
2022/01/12 13:47:48;;;;;;;;;;;;;;;-1.23;68.22;102174.72;5618854;31;34539;-82
2022/01/12 13:50:53;;;;;;;;;;;;;;;-1.35;68.10;102175.75;5616704;31;34657;-83
2022/01/12 13:54:02;;;;;;;;;;;;;;;-1.57;68.68;102176.00;5617577;31;34560;-83
2022/01/12 13:57:06;;;;;;;;;;;;;;;-1.64;68.64;102166.56;5617384;31;34316;-82
2022/01/12 14:00:19;;;;;;;;;;;;;;;-1.57;68.10;102176.00;5615919;31;34529;-82
2022/01/12 14:03:24;;;;;;;;;;;;;;;-1.59;67.94;102169.97;5617460;31;34940;-82
2022/01/12 14:06:28;;;;;;;;;;;;;;;-1.69;68.65;102167.50;5612005;31;34209;-83
2022/01/12 14:12:37;;;;;;;;;;;;;;;-1.68;69.11;102187.34;5597768;31;34324;-82
2022/01/12 14:15:40;;;;;;;;;;;;;;;-1.78;69.49;102192.66;5597941;31;34783;-83
2022/01/12 14:18:43;;;;;;;;;;;;;;;-1.82;70.01;102192.69;5610280;31;34880;-83
2022/01/12 14:21:57;;;;;;;;;;;;;;;-1.98;71.02;102194.56;5605358;31;34752;-83
2022/01/12 14:25:01;;;;;;;;;;;;;;;-2.05;71.05;102196.37;5596210;31;34638;-83
2022/01/12 14:28:05;;;;;;;;;;;;;;;-2.14;71.21;102188.66;5598213;31;34164;-83
2022/01/12 14:31:10;;;;;;;;;;;;;;;-2.21;70.84;102187.84;5595219;31;34391;-84
2022/01/12 14:34:12;;;;;;;;;;;;;;;-2.26;70.94;102187.91;5595599;31;34190;-83
2022/01/12 14:37:17;;;;;;;;;;;;;;;-2.33;71.46;102184.47;5595869;31;34195;-84
2022/01/12 14:40:20;;;;;;;;;;;;;;;-2.41;72.39;102180.22;5596160;31;35561;-83
2022/01/12 14:43:29;;;;;;;;;;;;;;;-2.36;72.36;102181.06;5595990;31;34625;-83
2022/01/12 14:46:34;;;;;;;;;;;;;;;-2.49;72.93;102188.94;5597085;31;34194;-83
2022/01/12 14:49:36;;;;;;;;;;;;;;;-2.57;73.80;102195.91;5598910;31;34293;-84
2022/01/12 14:52:39;;;;;;;;;;;;;;;-2.63;74.39;102203.69;5598828;31;34847;-84
2022/01/12 14:55:41;;;;;;;;;;;;;;;-2.69;75.32;102195.97;5595214;31;33783;-83
2022/01/12 14:58:45;;;;;;;;;;;;;;;-2.78;76.15;102185.69;5596418;31;34987;-84
2022/01/12 15:01:56;;;;;;;;;;;;;;;-2.89;76.63;102181.41;5595708;31;34388;-84
2022/01/12 15:04:59;;;;;;;;;;;;;;;-2.99;77.59;102182.34;5595184;31;34756;-83
2022/01/12 15:08:02;;;;;;;;;;;;;;;-3.12;79.04;102177.22;5595582;31;33957;-84
2022/01/12 15:11:04;;;;;;;;;;;;;;;-3.08;79.83;102182.34;5594670;31;35220;-84
2022/01/12 15:17:50;;;;;;;;;;;;;;;-3.12;80.03;102197.06;5537447;32;34484;-83
2022/01/12 15:21:02;;;;;;;;;;;;;;;-3.01;79.80;102182.31;5536312;32;34247;-83
2022/01/12 15:24:07;;;;;;;;;;;;;;;-3.01;80.02;102184.06;5536392;32;35277;-83
2022/01/12 15:27:12;;;;;;;;;;;;;;;-3.12;80.75;102197.94;5548911;32;34079;-84
2022/01/12 15:30:17;;;;;;;;;;;;;;;-3.10;80.56;102192.72;5574557;32;34762;-84
2022/01/12 15:33:20;;;;;;;;;;;;;;;-3.22;81.29;102196.25;5561229;32;34529;-84
2022/01/12 15:36:23;;;;;;;;;;;;;;;-3.28;81.81;102219.56;5555371;32;34904;-83
2022/01/12 15:39:30;;;;;;;;;;;;;;;-3.25;82.05;102216.97;5553564;32;34708;-83
2022/01/12 15:42:33;;;;;;;;;;;;;;;-3.27;82.13;102218.69;5555277;32;34788;-83
2022/01/12 15:45:37;;;;;;;;;;;;;;;-3.28;82.37;102214.38;5556442;32;34031;-83
2022/01/12 15:48:40;;;;;;;;;;;;;;;-3.47;82.84;102224.78;5543545;32;35203;-83
2022/01/12 15:51:46;;;;;;;;;;;;;;;-3.33;83.07;102223.91;5568788;32;34296;-83
2022/01/12 15:54:49;;;;;;;;;;;;;;;-3.21;82.73;102220.41;5578322;32;35469;-83
2022/01/12 15:57:54;;;;;;;;;;;;;;;-3.19;82.88;102219.50;5577848;32;33935;-83
2022/01/12 16:00:56;;;;;;;;;;;;;;;-3.33;83.73;102235.09;5577979;32;34527;-84
2022/01/12 16:04:00;;;;;;;;;;;;;;;-3.36;83.88;102229.94;5580613;32;34700;-83
2022/01/12 16:07:03;;;;;;;;;;;;;;;-3.32;84.07;102241.16;5581930;31;34601;-83
2022/01/12 16:10:06;;;;;;;;;;;;;;;-3.28;84.30;102248.03;5579282;31;34507;-84
2022/01/12 16:13:09;;;;;;;;;;;;;;;-3.14;83.82;102245.38;5577968;32;35125;-84
2022/01/12 16:16:32;;;;;;;;;;;;;;;-3.16;84.45;102234.19;5586557;31;34435;-83
2022/01/12 16:19:41;;;;;;;;;;;;;;;-3.08;84.34;102234.16;5596119;31;34545;-84
2022/01/12 16:22:48;;;;;;;;;;;;;;;-2.97;84.71;102234.97;5596716;31;34570;-84
2022/01/12 16:25:52;;;;;;;;;;;;;;;-2.89;84.26;102225.44;5596975;31;34725;-84
2022/01/12 16:28:55;;;;;;;;;;;;;;;-2.98;84.53;102230.66;5617276;31;34499;-84
2022/01/12 16:31:58;;;;;;;;;;;;;;;-3.11;84.99;102230.72;5616487;31;34338;-84
2022/01/12 16:35:01;;;;;;;;;;;;;;;-3.17;85.09;102220.37;5617076;31;34855;-85
2022/01/12 16:38:03;;;;;;;;;;;;;;;-3.30;85.51;102221.28;5616397;31;34295;-83
2022/01/12 16:41:06;;;;;;;;;;;;;;;-3.26;85.26;102212.66;5606002;31;34552;-84
2022/01/12 16:44:08;;;;;;;;;;;;;;;-3.31;85.50;102206.59;5597067;31;34627;-83
2022/01/12 16:47:11;;;;;;;;;;;;;;;-3.18;84.93;102208.28;5599281;31;34729;-84
2022/01/12 16:50:16;;;;;;;;;;;;;;;-3.28;85.95;102196.25;5599346;31;34603;-84
2022/01/12 16:53:21;;;;;;;;;;;;;;;-3.28;85.81;102216.97;5595279;31;35000;-84
2022/01/12 16:56:25;;;;;;;;;;;;;;;-3.18;86.87;102221.25;5598045;31;35049;-84
2022/01/12 16:59:27;;;;;;;;;;;;;;;-3.28;86.06;102228.19;5597185;31;35297;-83
2022/01/12 17:02:30;;;;;;;;;;;;;;;-3.25;86.64;102229.91;5599233;31;34475;-84
2022/01/12 17:05:33;;;;;;;;;;;;;;;-3.31;86.15;102228.19;5599190;31;34679;-84
2022/01/12 17:08:36;;;;;;;;;;;;;;;-3.34;86.50;102233.37;5599885;31;34290;-83
2022/01/12 17:11:39;;;;;;;;;;;;;;;-3.28;86.17;102245.44;5598300;31;34596;-84
2022/01/12 17:14:44;;;;;;;;;;;;;;;-3.35;86.45;102235.97;5601118;31;35128;-83
2022/01/12 17:18:08;;;;;;;;;;;;;;;-3.33;86.14;102234.25;5603769;31;35427;-84
2022/01/12 17:21:13;;;;;;;;;;;;;;;-3.37;85.86;102245.47;5599602;31;35550;-83